Terminal Aerodrome Forecast
Issued by NWS

Home | Current Version | Previous Version | Text Only | Print | Product List | Glossary On
Versions: 1 2 3 4 5 6 7 8 9 10 11 12 13
467
FTUS43 KEAX 241319 AAA
TAFMKC
TAF AMD
KMKC 241319Z 2413/2512 29014G24KT P6SM OVC012
     FM241500 31016G26KT P6SM VCSH OVC018
     FM250100 32009KT P6SM BKN030=

USA.gov is the U.S. government's official web portal to all federal, state and local government web resources and services.